createdAt,value
2022-08-05T00:00:17.891Z,3.63
2022-08-05T00:02:50.845Z,3.63
2022-08-05T00:06:03.201Z,2.83
2022-08-05T00:08:19.787Z,2.50
2022-08-05T00:10:53.643Z,2.20
2022-08-05T00:13:20.523Z,2.30
2022-08-05T00:16:08.653Z,2.35
2022-08-05T00:18:36.572Z,2.42
2022-08-05T00:21:06.957Z,2.30
2022-08-05T00:23:45.700Z,2.13
2022-08-05T00:26:16.351Z,2.22
2022-08-05T00:28:45.720Z,2.30
2022-08-05T00:31:13.707Z,2.10
2022-08-05T00:34:56.994Z,2.28
2022-08-05T00:37:11.000Z,2.05
2022-08-05T00:39:18.057Z,1.75
2022-08-05T00:41:55.328Z,2.05
2022-08-05T00:44:30.975Z,2.00
2022-08-05T00:47:02.209Z,1.90
2022-08-05T00:49:51.020Z,3.78
2022-08-05T00:52:28.117Z,3.70
2022-08-05T00:54:56.239Z,2.50
2022-08-05T00:57:25.444Z,2.30
2022-08-05T00:59:58.799Z,2.03
2022-08-05T01:02:25.783Z,2.50
2022-08-05T01:04:52.709Z,2.05
2022-08-05T01:07:19.596Z,2.50
2022-08-05T01:09:46.612Z,2.25
2022-08-05T01:12:25.154Z,2.35
2022-08-05T01:15:35.605Z,2.63
2022-08-05T01:18:10.092Z,2.67
2022-08-05T01:21:03.975Z,2.45
2022-08-05T01:24:13.260Z,1.80
2022-08-05T01:26:59.575Z,3.28
2022-08-05T01:29:37.247Z,2.10
2022-08-05T01:32:12.506Z,2.33
2022-08-05T01:34:54.665Z,2.20
2022-08-05T01:37:44.210Z,2.13
2022-08-05T01:40:12.761Z,2.50
2022-08-05T01:42:42.843Z,2.53
2022-08-05T01:45:10.717Z,2.53
2022-08-05T01:47:43.494Z,2.38
2022-08-05T01:50:28.539Z,2.17
2022-08-05T01:53:02.777Z,2.00
2022-08-05T01:55:36.337Z,1.98
2022-08-05T01:58:10.983Z,2.20
2022-08-05T02:00:56.516Z,2.30
2022-08-05T02:06:33.927Z,1.83
2022-08-05T02:08:58.549Z,2.30
2022-08-05T02:11:33.169Z,2.63
2022-08-05T02:14:15.610Z,2.15
2022-08-05T02:16:52.237Z,2.40
2022-08-05T02:19:28.644Z,1.85
2022-08-05T02:22:49.477Z,1.80
2022-08-05T02:25:33.285Z,1.85
2022-08-05T02:28:02.484Z,1.92
2022-08-05T02:30:54.598Z,2.10
2022-08-05T02:33:24.599Z,1.92
2022-08-05T02:38:35.395Z,2.22
2022-08-05T02:41:14.617Z,2.03
2022-08-05T02:44:02.460Z,2.13
2022-08-05T02:46:35.991Z,2.83
2022-08-05T02:49:21.964Z,1.77
2022-08-05T02:52:03.896Z,2.25
2022-08-05T02:54:35.727Z,2.13
2022-08-05T02:57:10.224Z,2.17
2022-08-05T02:59:56.271Z,2.30
2022-08-05T03:02:28.545Z,1.63
2022-08-05T03:04:57.896Z,2.20
2022-08-05T03:08:00.175Z,2.05
2022-08-05T03:10:21.983Z,2.10
2022-08-05T03:12:53.171Z,2.10
2022-08-05T03:15:20.791Z,2.30
2022-08-05T03:17:48.641Z,1.85
2022-08-05T03:20:21.373Z,2.20
2022-08-05T03:22:50.692Z,2.17
2022-08-05T03:25:32.511Z,2.00
2022-08-05T03:28:03.129Z,2.53
2022-08-05T03:30:34.772Z,2.20
2022-08-05T03:33:06.188Z,2.67
2022-08-05T03:35:41.628Z,2.38
2022-08-05T03:38:11.963Z,2.20
2022-08-05T03:40:47.204Z,2.25
2022-08-05T03:43:58.761Z,2.45
2022-08-05T03:46:03.230Z,2.60
2022-08-05T03:48:30.796Z,2.15
2022-08-05T03:52:36.872Z,2.45
2022-08-05T03:55:54.022Z,2.22
2022-08-05T03:56:49.981Z,2.53
2022-08-05T03:59:54.523Z,2.60
2022-08-05T04:02:37.503Z,2.40
2022-08-05T04:05:09.804Z,2.58
2022-08-05T04:07:57.152Z,2.30
2022-08-05T04:10:30.010Z,2.65
2022-08-05T04:13:03.445Z,2.75
2022-08-05T04:15:33.355Z,2.50
2022-08-05T04:18:07.910Z,2.30
2022-08-05T04:20:37.490Z,2.15
2022-08-05T04:23:04.567Z,2.80
2022-08-05T04:25:57.425Z,2.97
2022-08-05T04:28:20.314Z,2.70
2022-08-05T04:30:58.119Z,2.40
2022-08-05T04:33:54.547Z,2.63
2022-08-05T04:36:38.569Z,3.55
2022-08-05T04:39:02.518Z,2.55
2022-08-05T04:41:37.100Z,2.50
2022-08-05T04:44:09.266Z,2.92
2022-08-05T04:46:37.639Z,2.70
2022-08-05T04:49:12.324Z,2.63
2022-08-05T04:51:43.170Z,2.70
2022-08-05T04:54:10.676Z,2.65
2022-08-05T04:56:39.421Z,2.75
2022-08-05T04:59:21.979Z,2.70
2022-08-05T05:02:35.340Z,3.00
2022-08-05T05:04:47.563Z,3.05
2022-08-05T05:07:17.822Z,3.00
2022-08-05T05:09:45.802Z,2.95
2022-08-05T05:12:12.712Z,2.67
2022-08-05T05:14:49.326Z,2.90
2022-08-05T05:17:23.403Z,3.22
2022-08-05T05:19:53.662Z,6.28
2022-08-05T05:22:24.411Z,3.65
2022-08-05T05:25:01.223Z,3.10
2022-08-05T05:27:41.273Z,3.13
2022-08-05T05:30:30.791Z,2.97
2022-08-05T05:33:17.027Z,3.53
2022-08-05T05:35:48.277Z,3.95
2022-08-05T05:38:22.889Z,4.40
2022-08-05T05:40:58.311Z,3.95
2022-08-05T05:43:57.524Z,3.70
2022-08-05T05:46:15.759Z,8.10
2022-08-05T05:48:44.668Z,4.47
2022-08-05T05:51:19.268Z,5.60
2022-08-05T05:53:57.167Z,4.07
2022-08-05T05:56:32.764Z,3.35
2022-08-05T05:59:06.545Z,4.30
2022-08-05T06:01:39.807Z,3.67
2022-08-05T06:04:12.727Z,4.05
2022-08-05T06:06:47.716Z,3.67
2022-08-05T06:09:16.729Z,3.72
2022-08-05T06:12:01.456Z,3.08
2022-08-05T06:14:30.720Z,6.10
2022-08-05T06:16:58.392Z,3.63
2022-08-05T06:19:34.822Z,3.30
2022-08-05T06:22:04.265Z,3.83
2022-08-05T06:24:34.754Z,5.65
2022-08-05T06:27:02.200Z,5.57
2022-08-05T06:29:49.455Z,5.88
2022-08-05T06:32:26.386Z,3.80
2022-08-05T06:34:58.668Z,2.92
2022-08-05T06:37:57.055Z,3.28
2022-08-05T06:40:20.679Z,3.13
2022-08-05T06:42:52.730Z,3.17
2022-08-05T06:45:44.862Z,3.05
2022-08-05T06:48:44.223Z,3.20
2022-08-05T06:50:55.774Z,3.70
2022-08-05T06:53:27.726Z,3.20
2022-08-05T06:55:59.068Z,3.70
2022-08-05T06:58:35.033Z,3.47
2022-08-05T07:01:05.800Z,3.75
2022-08-05T07:03:33.531Z,3.55
2022-08-05T07:06:06.234Z,3.55
2022-08-05T07:08:47.233Z,3.80
2022-08-05T07:11:16.088Z,3.58
2022-08-05T07:14:02.557Z,3.60
2022-08-05T07:18:02.351Z,3.85
2022-08-05T07:20:23.019Z,3.70
2022-08-05T07:22:29.064Z,3.67
2022-08-05T07:25:22.394Z,3.38
2022-08-05T07:27:58.469Z,3.78
2022-08-05T07:30:34.494Z,3.20
2022-08-05T07:33:09.910Z,3.22
2022-08-05T07:36:02.515Z,4.13
2022-08-05T07:38:33.428Z,3.70
2022-08-05T07:42:06.892Z,3.78
2022-08-05T07:43:58.198Z,6.03
2022-08-05T07:46:28.077Z,4.95
2022-08-05T07:49:01.517Z,3.97
2022-08-05T07:51:48.787Z,5.68
2022-08-05T07:54:31.267Z,5.45
2022-08-05T07:57:22.456Z,3.90
2022-08-05T07:59:51.633Z,3.47
2022-08-05T08:02:18.620Z,3.50
2022-08-05T08:04:46.670Z,3.88
2022-08-05T08:07:15.038Z,4.95
2022-08-05T08:09:42.477Z,4.72
2022-08-05T08:12:30.597Z,3.78
2022-08-05T08:14:56.891Z,4.15
2022-08-05T08:17:29.281Z,3.10
2022-08-05T08:20:22.390Z,3.60
2022-08-05T08:22:44.504Z,3.50
2022-08-05T08:25:15.635Z,3.90
2022-08-05T08:27:47.528Z,4.05
2022-08-05T08:30:29.992Z,3.63
2022-08-05T08:33:04.814Z,4.03
2022-08-05T08:35:41.540Z,3.25
2022-08-05T08:38:35.858Z,3.03
2022-08-05T08:41:14.015Z,3.38
2022-08-05T08:45:23.924Z,3.00
2022-08-05T08:46:31.181Z,3.00
2022-08-05T08:49:08.338Z,3.30
2022-08-05T08:52:14.322Z,2.63
2022-08-05T08:54:43.068Z,4.00
2022-08-05T08:57:13.389Z,6.72
2022-08-05T08:59:41.797Z,5.68
2022-08-05T09:02:16.694Z,3.60
2022-08-05T09:04:57.783Z,3.72
2022-08-05T09:07:40.147Z,2.88
2022-08-05T09:10:20.865Z,3.30
2022-08-05T09:12:54.364Z,3.85
2022-08-05T09:15:23.651Z,4.50
2022-08-05T09:17:53.082Z,4.18
2022-08-05T09:20:36.458Z,3.20
2022-08-05T09:23:09.538Z,3.55
2022-08-05T09:26:00.307Z,3.05
2022-08-05T09:28:32.296Z,3.47
2022-08-05T09:31:44.124Z,3.30
2022-08-05T09:34:05.087Z,3.38
2022-08-05T09:36:59.434Z,6.13
2022-08-05T09:39:41.324Z,9.43
2022-08-05T09:42:23.931Z,9.00
2022-08-05T09:44:56.588Z,4.32
2022-08-05T09:47:34.948Z,4.13
2022-08-05T09:50:18.276Z,3.47
2022-08-05T09:53:01.176Z,3.50
2022-08-05T09:55:56.142Z,3.70
2022-08-05T09:58:22.211Z,3.50
2022-08-05T10:00:56.170Z,4.50
2022-08-05T10:03:24.902Z,3.60
2022-08-05T10:06:14.643Z,3.20
2022-08-05T10:08:54.040Z,3.35
2022-08-05T10:11:22.959Z,5.72
2022-08-05T10:13:49.944Z,3.70
2022-08-05T10:16:32.298Z,6.22
2022-08-05T10:19:01.818Z,4.60
2022-08-05T10:21:41.056Z,3.35
2022-08-05T10:24:13.796Z,4.63
2022-08-05T10:26:51.475Z,3.58
2022-08-05T10:29:24.122Z,3.35
2022-08-05T10:32:54.723Z,2.67
2022-08-05T10:35:01.105Z,3.05
2022-08-05T10:37:40.286Z,3.92
2022-08-05T10:40:35.084Z,5.07
2022-08-05T10:43:43.819Z,5.07
2022-08-05T10:46:13.453Z,3.40
2022-08-05T10:48:57.055Z,3.47
2022-08-05T10:51:28.790Z,3.85
2022-08-05T10:53:56.327Z,3.30
2022-08-05T10:56:28.317Z,3.20
2022-08-05T10:58:55.816Z,3.10
2022-08-05T11:01:54.527Z,3.15
2022-08-05T11:04:22.515Z,3.53
2022-08-05T11:07:04.591Z,3.97
2022-08-05T11:09:48.613Z,3.88
2022-08-05T11:12:24.629Z,4.50
2022-08-05T11:15:20.423Z,4.20
2022-08-05T11:17:57.195Z,3.78
2022-08-05T11:20:44.045Z,2.95
2022-08-05T11:23:33.712Z,2.80
2022-08-05T11:26:28.858Z,4.30
2022-08-05T11:29:11.383Z,3.65
2022-08-05T11:31:57.203Z,3.05
2022-08-05T11:34:51.765Z,2.83
2022-08-05T11:38:29.585Z,3.38
2022-08-05T11:41:34.775Z,3.80
2022-08-05T11:44:07.090Z,3.65
2022-08-05T11:46:58.241Z,3.55
2022-08-05T11:49:25.878Z,4.32
2022-08-05T11:51:57.585Z,3.20
2022-08-05T11:54:33.400Z,3.10
2022-08-05T11:57:08.162Z,2.88
2022-08-05T11:59:50.987Z,3.13
2022-08-05T12:02:29.714Z,2.83
2022-08-05T12:05:06.900Z,3.22
2022-08-05T12:08:03.360Z,3.50
2022-08-05T12:10:38.507Z,3.80
2022-08-05T12:13:17.078Z,3.22
2022-08-05T12:15:49.652Z,2.90
2022-08-05T12:18:32.839Z,3.38
2022-08-05T12:21:15.208Z,3.05
2022-08-05T12:23:57.567Z,2.90
2022-08-05T12:26:38.672Z,3.20
2022-08-05T12:29:09.364Z,3.30
2022-08-05T12:31:46.226Z,3.50
2022-08-05T12:34:23.731Z,3.30
2022-08-05T12:36:54.604Z,3.72
2022-08-05T12:39:27.805Z,3.05
2022-08-05T12:42:01.781Z,3.00
2022-08-05T12:44:33.915Z,4.28
2022-08-05T12:47:02.358Z,4.68
2022-08-05T12:50:04.529Z,3.40
2022-08-05T12:52:42.413Z,3.17
2022-08-05T12:55:23.645Z,3.28
2022-08-05T12:58:52.494Z,4.05
2022-08-05T13:02:03.552Z,3.20
2022-08-05T13:03:41.693Z,3.40
2022-08-05T13:06:16.959Z,3.30
2022-08-05T13:08:51.505Z,4.97
2022-08-05T13:12:01.078Z,4.20
2022-08-05T13:14:19.475Z,5.20
2022-08-05T13:16:47.768Z,4.30
2022-08-05T13:19:16.081Z,4.63
2022-08-05T13:21:47.955Z,4.07
2022-08-05T13:24:36.486Z,3.55
2022-08-05T13:27:11.135Z,5.72
2022-08-05T13:30:33.151Z,7.03
2022-08-05T13:32:34.029Z,4.40
2022-08-05T13:35:03.970Z,3.83
2022-08-05T13:37:34.731Z,5.07
2022-08-05T13:42:44.053Z,6.20
2022-08-05T13:45:12.119Z,4.43
2022-08-05T13:48:08.299Z,4.22
2022-08-05T13:50:26.611Z,4.25
2022-08-05T13:52:53.979Z,4.65
2022-08-05T13:55:41.070Z,3.47
2022-08-05T13:58:07.950Z,5.95
2022-08-05T14:00:37.949Z,7.30
2022-08-05T14:03:08.503Z,5.05
2022-08-05T14:06:24.780Z,4.20
2022-08-05T14:08:27.885Z,3.47
2022-08-05T14:11:03.070Z,3.97
2022-08-05T14:13:48.247Z,4.65
2022-08-05T14:16:17.098Z,4.30
2022-08-05T14:18:46.152Z,3.85
2022-08-05T14:22:08.460Z,4.38
2022-08-05T14:24:00.673Z,4.18
2022-08-05T14:26:38.858Z,4.38
2022-08-05T14:29:15.938Z,3.77
2022-08-05T14:32:02.830Z,6.38
2022-08-05T14:34:35.387Z,4.15
2022-08-05T14:37:04.405Z,3.70
2022-08-05T14:39:49.277Z,3.67
2022-08-05T14:42:19.296Z,3.55
2022-08-05T14:44:49.079Z,3.90
2022-08-05T14:47:16.021Z,5.18
2022-08-05T14:49:58.560Z,4.60
2022-08-05T14:52:51.608Z,4.85
2022-08-05T14:55:15.637Z,5.18
2022-08-05T14:57:54.870Z,3.97
2022-08-05T15:00:28.435Z,4.50
2022-08-05T15:02:56.918Z,4.55
2022-08-05T15:05:29.602Z,4.60
2022-08-05T15:08:11.327Z,4.38
2022-08-05T15:10:43.517Z,4.20
2022-08-05T15:13:13.157Z,4.30
2022-08-05T15:15:55.262Z,7.97
2022-08-05T15:18:23.621Z,4.50
2022-08-05T15:20:51.054Z,4.55
2022-08-05T15:23:18.263Z,4.68
2022-08-05T15:25:53.430Z,4.30
2022-08-05T15:28:27.651Z,4.40
2022-08-05T15:30:55.087Z,4.75
2022-08-05T15:34:04.175Z,4.60
2022-08-05T15:36:17.401Z,6.85
2022-08-05T15:40:41.275Z,7.45
2022-08-05T15:41:58.268Z,6.63
2022-08-05T15:44:26.015Z,5.38
2022-08-05T15:46:55.755Z,6.63
2022-08-05T15:49:41.865Z,5.90
2022-08-05T15:52:29.357Z,5.60
2022-08-05T15:54:56.752Z,5.30
2022-08-05T15:57:23.905Z,5.10
2022-08-05T15:59:56.721Z,5.28
2022-08-05T16:02:25.492Z,5.88
2022-08-05T16:04:53.122Z,4.80
2022-08-05T16:07:23.193Z,5.20
2022-08-05T16:09:51.039Z,4.80
2022-08-05T16:12:21.080Z,4.60
2022-08-05T16:14:48.354Z,4.82
2022-08-05T16:17:15.850Z,4.93
2022-08-05T16:20:03.158Z,5.18
2022-08-05T16:22:33.945Z,5.47
2022-08-05T16:27:59.644Z,5.43
2022-08-05T16:30:26.157Z,5.45
2022-08-05T16:32:54.639Z,6.30
2022-08-05T16:35:28.408Z,6.82
2022-08-05T16:38:03.420Z,6.45
2022-08-05T16:40:52.127Z,6.57
2022-08-05T16:43:25.956Z,6.40
2022-08-05T16:46:06.371Z,5.90
2022-08-05T16:48:40.071Z,6.18
2022-08-05T16:51:09.343Z,5.60
2022-08-05T16:54:04.019Z,6.53
2022-08-05T16:56:27.309Z,6.82
2022-08-05T16:58:54.197Z,6.35
2022-08-05T17:01:21.546Z,5.72
2022-08-05T17:03:52.022Z,6.13
2022-08-05T17:06:19.562Z,5.78
2022-08-05T17:08:52.800Z,5.80
2022-08-05T17:11:20.925Z,5.65
2022-08-05T17:13:51.286Z,5.75
2022-08-05T17:16:33.037Z,5.30
2022-08-05T17:19:01.519Z,5.68
2022-08-05T17:21:36.212Z,5.63
2022-08-05T17:24:18.520Z,6.63
2022-08-05T17:26:52.770Z,6.75
2022-08-05T17:29:22.348Z,5.88
2022-08-05T17:31:59.935Z,6.40
2022-08-05T17:34:30.274Z,5.82
2022-08-05T17:37:00.549Z,6.97
2022-08-05T17:39:33.199Z,6.20
2022-08-05T17:42:20.011Z,6.50
2022-08-05T17:44:51.057Z,7.13
2022-08-05T17:47:22.442Z,6.80
2022-08-05T17:50:00.002Z,7.50
2022-08-05T17:52:32.529Z,7.80
2022-08-05T17:55:00.394Z,7.93
2022-08-05T17:57:28.311Z,7.65
2022-08-05T18:00:05.295Z,7.53
2022-08-05T18:02:34.090Z,7.97
2022-08-05T18:05:03.701Z,8.70
2022-08-05T18:07:41.293Z,8.30
2022-08-05T18:10:20.449Z,8.25
2022-08-05T18:12:48.162Z,9.80
2022-08-05T18:15:15.145Z,9.55
2022-08-05T18:18:00.630Z,10.07
2022-08-05T18:20:32.033Z,9.20
2022-08-05T18:23:11.465Z,10.25
2022-08-05T18:25:44.919Z,9.63
2022-08-05T18:28:17.677Z,10.27
2022-08-05T18:30:51.296Z,9.63
2022-08-05T18:33:22.506Z,9.65
2022-08-05T18:36:04.241Z,9.00
2022-08-05T18:38:35.827Z,9.93
2022-08-05T18:41:56.221Z,9.98
2022-08-05T18:43:51.103Z,10.15
2022-08-05T18:46:19.569Z,11.15
2022-08-05T18:48:53.791Z,10.70
2022-08-05T18:52:06.809Z,10.70
2022-08-05T18:54:30.975Z,10.45
2022-08-05T18:56:59.876Z,9.85
2022-08-05T18:59:42.966Z,9.85
2022-08-05T19:02:27.916Z,10.23
2022-08-05T19:05:02.586Z,9.68
2022-08-05T19:07:48.069Z,9.30
2022-08-05T19:10:16.501Z,10.02
2022-08-05T19:12:46.169Z,9.98
2022-08-05T19:15:56.582Z,9.43
2022-08-05T19:18:09.334Z,10.05
2022-08-05T19:20:41.278Z,11.45
2022-08-05T19:23:22.714Z,12.02
2022-08-05T19:26:01.743Z,10.40
2022-08-05T19:28:31.148Z,10.82
2022-08-05T19:31:01.058Z,10.48
2022-08-05T19:33:35.245Z,10.98
2022-08-05T19:36:06.597Z,10.43
2022-08-05T19:38:37.258Z,15.05
2022-08-05T19:41:07.165Z,13.48
2022-08-05T19:44:05.995Z,12.55
2022-08-05T19:46:29.310Z,13.45
2022-08-05T19:49:02.834Z,12.77
2022-08-05T19:52:05.668Z,10.82
2022-08-05T19:54:26.714Z,11.20
2022-08-05T19:56:59.457Z,11.20
2022-08-05T20:00:00.465Z,11.88
2022-08-05T20:02:18.117Z,10.63
2022-08-05T20:04:48.255Z,10.57
2022-08-05T20:07:15.591Z,10.55
2022-08-05T20:10:04.949Z,10.80
2022-08-05T20:12:40.220Z,10.40
2022-08-05T20:15:48.058Z,9.77
2022-08-05T20:18:10.505Z,10.68
2022-08-05T20:20:56.809Z,10.57
2022-08-05T20:23:40.714Z,10.75
2022-08-05T20:26:16.203Z,10.57
2022-08-05T20:31:11.745Z,10.30
2022-08-05T20:33:38.626Z,10.52
2022-08-05T20:36:11.060Z,10.27
2022-08-05T20:38:40.890Z,10.65
2022-08-05T20:41:24.217Z,11.93
2022-08-05T20:43:58.634Z,12.57
2022-08-05T20:46:28.567Z,11.93
2022-08-05T20:48:55.481Z,11.18
2022-08-05T20:51:22.747Z,10.82
2022-08-05T20:53:55.252Z,11.00
2022-08-05T20:56:29.103Z,11.35
2022-08-05T20:59:04.247Z,10.68
2022-08-05T21:01:41.425Z,10.65
2022-08-05T21:04:10.522Z,11.65
2022-08-05T21:06:45.476Z,10.45
2022-08-05T21:09:14.243Z,11.55
2022-08-05T21:12:10.961Z,11.18
2022-08-05T21:14:31.449Z,11.57
2022-08-05T21:17:06.285Z,11.38
2022-08-05T21:19:46.610Z,11.93
2022-08-05T21:22:18.649Z,11.75
2022-08-05T21:24:51.863Z,11.50
2022-08-05T21:27:24.792Z,11.68
2022-08-05T21:29:57.659Z,12.00
2022-08-05T21:32:27.696Z,10.88
2022-08-05T21:35:16.888Z,12.55
2022-08-05T21:37:47.200Z,11.43
2022-08-05T21:40:14.598Z,11.98
2022-08-05T21:42:45.312Z,11.73
2022-08-05T21:45:24.175Z,11.68
2022-08-05T21:47:55.775Z,10.98
2022-08-05T21:50:24.810Z,11.38
2022-08-05T21:52:51.923Z,11.15
2022-08-05T21:56:00.793Z,11.27
2022-08-05T21:58:07.123Z,11.75
2022-08-05T22:00:37.595Z,11.75
2022-08-05T22:03:07.483Z,14.93
2022-08-05T22:05:48.770Z,17.45
2022-08-05T22:08:22.239Z,13.65
2022-08-05T22:10:51.627Z,12.48
2022-08-05T22:14:20.000Z,11.40
2022-08-05T22:16:32.189Z,11.98
2022-08-05T22:18:54.078Z,11.68
2022-08-05T22:21:25.750Z,11.65
2022-08-05T22:24:13.310Z,11.55
2022-08-05T22:27:17.679Z,11.52
2022-08-05T22:29:44.759Z,11.20
2022-08-05T22:32:12.954Z,12.13
2022-08-05T22:34:44.550Z,11.48
2022-08-05T22:37:12.801Z,11.30
2022-08-05T22:39:39.941Z,10.88
2022-08-05T22:42:12.166Z,11.38
2022-08-05T22:44:48.390Z,12.23
2022-08-05T22:47:29.751Z,11.63
2022-08-05T22:50:20.363Z,11.77
2022-08-05T22:52:48.804Z,12.18
2022-08-05T22:55:18.315Z,11.70
2022-08-05T23:00:17.971Z,11.40
2022-08-05T23:02:48.633Z,12.13
2022-08-05T23:05:15.956Z,12.98
2022-08-05T23:07:48.249Z,18.38
2022-08-05T23:10:19.696Z,13.13
2022-08-05T23:12:55.232Z,12.23
2022-08-05T23:15:30.017Z,12.45
2022-08-05T23:18:03.339Z,12.23
2022-08-05T23:20:37.280Z,11.23
2022-08-05T23:23:08.097Z,11.23
2022-08-05T23:25:54.723Z,11.55
2022-08-05T23:28:33.101Z,10.77
2022-08-05T23:31:15.756Z,11.20
2022-08-05T23:34:04.360Z,11.40
2022-08-05T23:36:40.085Z,10.43
2022-08-05T23:39:17.227Z,11.40
2022-08-05T23:41:51.509Z,11.45
2022-08-05T23:44:22.561Z,11.25
2022-08-05T23:46:52.077Z,11.55
2022-08-05T23:49:23.603Z,10.73
2022-08-05T23:52:11.191Z,11.05
2022-08-05T23:54:38.894Z,10.70
2022-08-05T23:57:07.344Z,10.90
2022-08-05T23:59:37.715Z,11.00
